Airfield :
LOGIN :

Register | Disclaimer

   EN    FR    IT 

 










Legend :    VFR   Marginal VFR   IFR   Intensive IFR   Very Intensive IFR
Visi :
Ceiling :
>= 8 km
>= 3000ft
5 to 8 km
1000 to 3000 ft
1500m to 5 km
500 to 1000 ft
800 to 1500m
200 to 500 ft
< 800m
< 200 ft
Symbols :   Thunderstorms  Fog  Heavy snow  Heavy precipitations  Wind > 20 kt
SIGMETs :     Misc.  Thunderstorms  Icing  Turbulence  Mountain Waves  Volcanic Ashes






- Airport Elevation : 375 ft
- IATA code : MST


EHBK - Maastricht Aachen

CURRENT METAR :
  • 021755Z AUTO 26010KT 220V310 9999 NSC 19/10 Q1013 TEMPO 6000 SHRA SCT020CB

EXPIRED METARs :
  • 021725Z AUTO 25008KT 210V300 9999 NSC 19/09 Q1013 TEMPO 6000 SHRA SCT020CB
  • 021655Z AUTO 25010KT 200V290 9999 NSC 20/09 Q1012 TEMPO 6000 SHRA SCT020CB
  • 021625Z AUTO 25010KT 210V310 9999 SCT045/// 20/10 Q1012 TEMPO 6000 SHRA SCT020CB
  • 021555Z AUTO 26009KT 210V330 9999 FEW032 BKN039 OVC045 20/11 Q1012 TEMPO 6000 SHRA SCT020CB
  • 021525Z AUTO 23009KT 9999 FEW027 SCT036 BKN043 20/15 Q1012 TEMPO 6000 SHRA SCT020CB

TAF TAF EHBK
Valid from the 02 at 18:00 until the 04 at 00:00 UTC


021708Z 0218/0324 24010KT 9999 BKN045
PROB30
TEMPO 0218/0221 5000 SHRA FEW030CB
PROB40 0304/0309 SCT007 BKN012
PROB30
TEMPO 0309/0315 7000 -SHRA -RADZ SCT020TCU



MET'MAP, your aeronautical weather chart ! - Copyright ORBIFLY December 2007 - Disclaimer

ORBIFLY MET'MAP TEAM :

Programming & Development : Alexandra Zaïnal
Concept & original design : Baudouin d'Aumeries
Assistance for programming : Marc-Olivier Méhu
Technical & hardware support : Manuel Goepfert

Contact : metmap@orbifly.com




SOURCES & CREDITS :

   NOAA